createdAt,value
2022-12-15T00:02:24.039Z,3.86
2022-12-15T00:05:10.348Z,3.11
2022-12-15T00:07:56.321Z,2.98
2022-12-15T00:10:42.916Z,3.32
2022-12-15T00:13:30.671Z,3.32
2022-12-15T00:16:17.611Z,3.40
2022-12-15T00:19:03.479Z,2.73
2022-12-15T00:21:49.936Z,2.40
2022-12-15T00:24:35.747Z,3.19
2022-12-15T00:27:22.729Z,3.11
2022-12-15T00:30:08.708Z,3.32
2022-12-15T00:32:55.229Z,2.51
2022-12-15T00:35:41.359Z,3.19
2022-12-15T00:38:27.962Z,3.27
2022-12-15T00:41:00.952Z,2.92
2022-12-15T00:43:32.362Z,2.61
2022-12-15T00:46:18.861Z,3.13
2022-12-15T00:48:46.508Z,3.38
2022-12-15T00:51:13.798Z,2.87
2022-12-15T00:53:59.613Z,3.18
2022-12-15T00:56:45.781Z,3.26
2022-12-15T00:59:32.254Z,3.59
2022-12-15T01:02:18.855Z,3.71
2022-12-15T01:05:04.893Z,3.78
2022-12-15T01:07:50.742Z,2.59
2022-12-15T01:10:37.504Z,3.61
2022-12-15T01:13:23.915Z,3.79
2022-12-15T01:16:09.883Z,3.63
2022-12-15T01:18:56.300Z,3.90
2022-12-15T01:21:25.523Z,3.80
2022-12-15T01:23:53.425Z,3.76
2022-12-15T01:26:20.805Z,3.61
2022-12-15T01:28:48.258Z,3.69
2022-12-15T01:31:15.924Z,3.82
2022-12-15T01:33:43.769Z,4.00
2022-12-15T01:36:11.358Z,3.90
2022-12-15T01:38:38.965Z,4.11
2022-12-15T01:41:07.787Z,4.17
2022-12-15T01:43:36.956Z,4.25
2022-12-15T01:46:08.612Z,3.80
2022-12-15T01:48:49.636Z,3.32
2022-12-15T01:51:34.084Z,3.66
2022-12-15T01:54:27.762Z,3.99
2022-12-15T01:56:57.153Z,4.10
2022-12-15T01:59:27.224Z,4.06
2022-12-15T02:01:55.008Z,3.78
2022-12-15T02:04:23.108Z,4.14
2022-12-15T02:06:50.673Z,3.77
2022-12-15T02:09:18.122Z,3.69
2022-12-15T02:11:59.790Z,3.52
2022-12-15T02:14:52.168Z,3.58
2022-12-15T02:17:27.391Z,3.77
2022-12-15T02:20:36.583Z,4.05
2022-12-15T02:23:06.780Z,4.14
2022-12-15T02:26:01.379Z,3.86
2022-12-15T02:28:35.292Z,3.86
2022-12-15T02:31:49.868Z,3.83
2022-12-15T02:34:33.407Z,4.15
2022-12-15T02:37:05.205Z,4.32
2022-12-15T02:39:32.812Z,4.22
2022-12-15T02:42:00.135Z,4.39
2022-12-15T02:44:35.240Z,4.45
2022-12-15T02:47:21.106Z,4.25
2022-12-15T02:49:51.269Z,4.09
2022-12-15T02:52:21.586Z,3.86
2022-12-15T02:55:11.040Z,4.36
2022-12-15T02:57:47.168Z,4.00
2022-12-15T03:00:14.509Z,4.31
2022-12-15T03:02:44.503Z,4.27
2022-12-15T03:05:12.417Z,4.36
2022-12-15T03:07:42.760Z,4.15
2022-12-15T03:10:11.681Z,4.35
2022-12-15T03:12:39.055Z,4.42
2022-12-15T03:15:06.964Z,4.62
2022-12-15T03:17:34.593Z,4.47
2022-12-15T03:20:02.173Z,4.51
2022-12-15T03:22:29.694Z,4.53
2022-12-15T03:24:57.663Z,4.49
2022-12-15T03:27:25.051Z,4.56
2022-12-15T03:29:52.425Z,4.38
2022-12-15T03:32:20.184Z,4.16
2022-12-15T03:34:47.581Z,4.20
2022-12-15T03:37:14.945Z,4.03
2022-12-15T03:39:42.542Z,4.14
2022-12-15T03:42:09.878Z,4.14
2022-12-15T03:44:37.197Z,3.93
2022-12-15T03:47:05.901Z,3.85
2022-12-15T03:49:33.245Z,3.75
2022-12-15T03:52:00.603Z,3.84
2022-12-15T03:54:28.208Z,3.69
2022-12-15T03:56:55.590Z,3.79
2022-12-15T03:59:22.942Z,3.67
2022-12-15T04:01:50.608Z,3.73
2022-12-15T04:04:18.353Z,3.61
2022-12-15T04:06:46.168Z,3.79
2022-12-15T04:09:13.479Z,3.89
2022-12-15T04:11:41.156Z,3.94
2022-12-15T04:14:09.418Z,3.94
2022-12-15T04:16:36.742Z,3.77
2022-12-15T04:19:23.276Z,3.72
2022-12-15T04:21:50.571Z,3.30
2022-12-15T04:24:37.041Z,3.80
2022-12-15T04:27:23.079Z,3.88
2022-12-15T04:30:09.537Z,3.96
2022-12-15T04:32:55.848Z,4.06
2022-12-15T04:35:42.241Z,3.95
2022-12-15T04:38:28.043Z,4.03
2022-12-15T04:41:14.027Z,3.77
2022-12-15T04:43:59.771Z,3.88
2022-12-15T04:46:46.050Z,3.83
2022-12-15T04:49:32.024Z,3.97
2022-12-15T04:52:18.509Z,3.93
2022-12-15T04:55:04.694Z,4.00
2022-12-15T04:57:50.737Z,3.90
2022-12-15T05:00:36.533Z,3.89
2022-12-15T05:03:24.036Z,3.83
2022-12-15T05:06:10.208Z,3.86
2022-12-15T05:08:56.140Z,4.00
2022-12-15T05:11:42.115Z,3.96
2022-12-15T05:14:28.591Z,3.96
2022-12-15T05:17:14.607Z,3.98
2022-12-15T05:20:00.926Z,4.04
2022-12-15T05:22:46.944Z,4.03
2022-12-15T05:25:33.350Z,4.07
2022-12-15T05:28:19.484Z,3.95
2022-12-15T05:31:05.646Z,4.04
2022-12-15T05:33:33.759Z,3.97
2022-12-15T05:36:01.695Z,4.06
2022-12-15T05:38:29.013Z,4.13
2022-12-15T05:40:59.457Z,3.90
2022-12-15T05:43:27.265Z,3.86
2022-12-15T05:45:54.747Z,3.92
2022-12-15T05:48:22.251Z,4.01
2022-12-15T05:50:50.580Z,4.00
2022-12-15T05:53:17.935Z,3.71
2022-12-15T05:55:45.254Z,3.91
2022-12-15T05:58:12.915Z,3.96
2022-12-15T06:00:40.368Z,3.84
2022-12-15T06:03:08.033Z,3.57
2022-12-15T06:05:35.472Z,3.93
2022-12-15T06:08:02.865Z,3.86
2022-12-15T06:10:30.461Z,3.99
2022-12-15T06:12:57.795Z,4.00
2022-12-15T06:15:25.134Z,4.15
2022-12-15T06:17:55.724Z,4.21
2022-12-15T06:20:23.076Z,4.23
2022-12-15T06:22:50.457Z,4.27
2022-12-15T06:25:18.058Z,4.31
2022-12-15T06:27:45.409Z,4.22
2022-12-15T06:30:13.333Z,4.25
2022-12-15T06:32:40.969Z,3.99
2022-12-15T06:35:08.642Z,4.32
2022-12-15T06:37:36.138Z,4.10
2022-12-15T06:40:04.056Z,3.88
2022-12-15T06:42:31.433Z,3.85
2022-12-15T06:44:58.774Z,3.51
2022-12-15T06:47:26.376Z,3.51
2022-12-15T06:49:53.847Z,3.85
2022-12-15T06:52:21.288Z,3.78
2022-12-15T06:54:48.877Z,3.37
2022-12-15T06:57:16.848Z,3.92
2022-12-15T06:59:44.286Z,4.10
2022-12-15T07:02:21.078Z,4.18
2022-12-15T07:04:51.111Z,4.46
2022-12-15T07:07:18.774Z,4.06
2022-12-15T07:09:48.876Z,4.33
2022-12-15T07:12:16.246Z,4.04
2022-12-15T07:14:47.471Z,4.28
2022-12-15T07:17:20.341Z,4.67
2022-12-15T07:19:47.864Z,4.74
2022-12-15T07:22:15.223Z,4.79
2022-12-15T07:24:42.547Z,4.76
2022-12-15T07:27:10.186Z,4.77
2022-12-15T07:29:37.483Z,4.63
2022-12-15T07:32:05.003Z,3.87
2022-12-15T07:34:32.606Z,4.39
2022-12-15T07:37:00.051Z,4.59
2022-12-15T07:39:27.763Z,4.78
2022-12-15T07:41:55.508Z,4.56
2022-12-15T07:44:22.837Z,3.86
2022-12-15T07:46:50.171Z,4.29
2022-12-15T07:49:18.058Z,4.62
2022-12-15T07:51:45.397Z,4.71
2022-12-15T07:54:13.178Z,4.50
2022-12-15T07:56:40.801Z,4.43
2022-12-15T07:59:08.178Z,4.12
2022-12-15T08:01:35.746Z,4.86
2022-12-15T08:04:03.639Z,4.85
2022-12-15T08:06:31.053Z,5.20
2022-12-15T08:08:58.499Z,5.27
2022-12-15T08:11:26.162Z,5.23
2022-12-15T08:14:14.928Z,5.14
2022-12-15T08:16:41.197Z,5.48
2022-12-15T08:19:11.257Z,5.78
2022-12-15T08:21:42.165Z,5.55
2022-12-15T08:24:09.847Z,5.59
2022-12-15T08:26:38.054Z,5.48
2022-12-15T08:31:53.773Z,6.05
2022-12-15T08:34:21.369Z,6.14
2022-12-15T08:36:48.717Z,6.03
2022-12-15T08:39:16.616Z,5.55
2022-12-15T08:41:44.118Z,6.06
2022-12-15T08:44:11.452Z,5.70
2022-12-15T08:46:39.905Z,6.14
2022-12-15T08:49:08.759Z,5.71
2022-12-15T08:51:36.072Z,6.08
2022-12-15T08:54:03.716Z,6.19
2022-12-15T08:56:31.145Z,6.23
2022-12-15T08:58:59.991Z,6.29
2022-12-15T09:01:28.900Z,6.22
2022-12-15T09:03:56.594Z,6.32
2022-12-15T09:06:28.737Z,5.99
2022-12-15T09:08:57.136Z,6.07
2022-12-15T09:11:25.287Z,6.11
2022-12-15T09:13:52.700Z,6.31
2022-12-15T09:16:20.655Z,6.46
2022-12-15T09:18:53.202Z,4.88
2022-12-15T09:21:23.165Z,4.58
2022-12-15T09:23:52.069Z,4.08
2022-12-15T09:26:20.500Z,4.52
2022-12-15T09:28:50.125Z,4.47
2022-12-15T09:31:22.915Z,4.81
2022-12-15T09:33:51.866Z,5.71
2022-12-15T09:36:19.274Z,5.88
2022-12-15T09:38:46.674Z,4.73
2022-12-15T09:41:17.382Z,4.92
2022-12-15T09:44:23.008Z,4.64
2022-12-15T09:46:54.148Z,4.34
2022-12-15T09:49:30.055Z,5.49
2022-12-15T09:52:17.925Z,5.32
2022-12-15T09:54:46.344Z,5.65
2022-12-15T09:57:25.585Z,4.87
2022-12-15T10:00:33.442Z,5.70
2022-12-15T10:03:19.989Z,5.92
2022-12-15T10:06:27.080Z,6.06
2022-12-15T10:09:27.929Z,6.36
2022-12-15T10:12:00.403Z,6.21
2022-12-15T10:14:34.421Z,5.75
2022-12-15T10:17:07.378Z,6.04
2022-12-15T10:19:40.816Z,6.24
2022-12-15T10:22:16.816Z,6.42
2022-12-15T10:25:09.270Z,6.62
2022-12-15T10:27:34.153Z,6.31
2022-12-15T10:30:09.661Z,6.17
2022-12-15T10:32:43.060Z,6.18
2022-12-15T10:35:15.823Z,6.55
2022-12-15T10:37:43.353Z,6.34
2022-12-15T10:40:15.365Z,5.15
2022-12-15T10:42:50.213Z,5.72
2022-12-15T10:45:38.072Z,5.95
2022-12-15T10:48:06.993Z,6.20
2022-12-15T10:50:35.489Z,6.34
2022-12-15T10:53:09.923Z,6.49
2022-12-15T10:55:39.864Z,6.55
2022-12-15T10:58:18.527Z,6.81
2022-12-15T11:00:46.562Z,6.66
2022-12-15T11:03:26.249Z,6.86
2022-12-15T11:05:55.243Z,6.72
2022-12-15T11:08:23.605Z,7.08
2022-12-15T11:11:14.067Z,7.02
2022-12-15T11:13:42.054Z,6.70
2022-12-15T11:16:17.289Z,6.83
2022-12-15T11:18:51.500Z,6.76
2022-12-15T11:21:34.511Z,6.88
2022-12-15T11:24:22.667Z,7.00
2022-12-15T11:27:30.700Z,6.98
2022-12-15T11:30:16.003Z,6.41
2022-12-15T11:32:46.897Z,6.49
2022-12-15T11:35:19.159Z,6.86
2022-12-15T11:37:51.712Z,6.72
2022-12-15T11:40:52.757Z,7.02
2022-12-15T11:43:43.470Z,6.99
2022-12-15T11:46:14.126Z,7.17
2022-12-15T11:48:49.030Z,7.05
2022-12-15T11:51:34.989Z,7.13
2022-12-15T11:54:17.779Z,7.27
2022-12-15T11:56:53.005Z,7.45
2022-12-15T11:59:32.556Z,7.03
2022-12-15T12:02:23.004Z,7.16
2022-12-15T12:05:14.012Z,7.34
2022-12-15T12:07:50.914Z,7.32
2022-12-15T12:10:24.249Z,7.13
2022-12-15T12:13:04.770Z,7.21
2022-12-15T12:15:55.925Z,7.21
2022-12-15T12:18:30.158Z,7.29
2022-12-15T12:21:12.440Z,7.13
2022-12-15T12:23:47.735Z,7.06
2022-12-15T12:26:25.345Z,7.25
2022-12-15T12:29:28.182Z,7.28
2022-12-15T12:32:05.201Z,7.41
2022-12-15T12:34:35.841Z,6.95
2022-12-15T12:37:25.233Z,6.68
2022-12-15T12:39:52.849Z,6.88
2022-12-15T12:42:40.207Z,6.92
2022-12-15T12:45:12.135Z,6.84
2022-12-15T12:47:41.616Z,6.83
2022-12-15T12:50:28.001Z,7.00
2022-12-15T12:52:59.293Z,6.91
2022-12-15T12:55:40.073Z,7.06
2022-12-15T12:58:34.457Z,7.20
2022-12-15T13:01:15.245Z,7.23
2022-12-15T13:03:43.573Z,7.22
2022-12-15T13:06:35.670Z,7.28
2022-12-15T13:09:47.854Z,7.28
2022-12-15T13:12:51.603Z,6.44
2022-12-15T13:15:29.340Z,7.06
2022-12-15T13:18:00.247Z,7.07
2022-12-15T13:20:32.100Z,7.07
2022-12-15T13:23:25.639Z,6.97
2022-12-15T13:28:45.636Z,6.92
2022-12-15T13:31:16.537Z,6.38
2022-12-15T13:34:11.949Z,6.92
2022-12-15T13:36:39.448Z,6.37
2022-12-15T13:39:13.061Z,6.60
2022-12-15T13:42:07.881Z,6.54
2022-12-15T13:44:48.655Z,6.64
2022-12-15T13:47:21.147Z,6.78
2022-12-15T13:50:02.882Z,6.71
2022-12-15T13:53:16.340Z,6.54
2022-12-15T13:55:28.112Z,6.35
2022-12-15T13:57:58.856Z,6.49
2022-12-15T14:00:26.268Z,6.53
2022-12-15T14:03:07.114Z,6.62
2022-12-15T14:05:34.571Z,6.11
2022-12-15T14:08:03.504Z,6.30
2022-12-15T14:10:36.678Z,6.11
2022-12-15T14:13:21.194Z,6.10
2022-12-15T14:15:59.699Z,6.10
2022-12-15T14:18:35.705Z,6.07
2022-12-15T14:21:07.175Z,6.32
2022-12-15T14:24:03.976Z,5.85
2022-12-15T14:26:32.454Z,6.08
2022-12-15T14:29:05.533Z,5.80
2022-12-15T14:31:33.197Z,5.73
2022-12-15T14:34:03.705Z,5.58
2022-12-15T14:36:31.053Z,5.64
2022-12-15T14:39:00.269Z,5.15
2022-12-15T14:41:29.790Z,5.31
2022-12-15T14:44:31.868Z,5.29
2022-12-15T14:46:49.504Z,5.74
2022-12-15T14:49:26.963Z,5.65
2022-12-15T14:51:59.764Z,5.02
2022-12-15T14:54:37.639Z,5.21
2022-12-15T14:57:15.154Z,5.29
2022-12-15T14:59:44.059Z,5.37
2022-12-15T15:02:23.137Z,5.66
2022-12-15T15:03:15.373Z,6.53
2022-12-15T15:04:59.924Z,5.64
2022-12-15T15:07:28.824Z,5.71
2022-12-15T15:09:56.180Z,5.78
2022-12-15T15:12:24.723Z,5.52
2022-12-15T15:15:00.292Z,5.49
2022-12-15T15:17:57.324Z,5.44
2022-12-15T15:20:35.904Z,5.70
2022-12-15T15:23:19.104Z,5.59
2022-12-15T15:25:49.615Z,5.28
2022-12-15T15:28:19.733Z,4.61
2022-12-15T15:30:59.261Z,4.54
2022-12-15T15:33:27.595Z,4.50
2022-12-15T15:35:56.516Z,4.77
2022-12-15T15:38:35.718Z,5.21
2022-12-15T15:41:30.034Z,5.13
2022-12-15T15:44:01.404Z,5.21
2022-12-15T15:46:31.257Z,5.25
2022-12-15T15:49:12.669Z,4.92
2022-12-15T15:51:40.589Z,4.72
2022-12-15T15:54:13.133Z,4.84
2022-12-15T15:56:41.551Z,4.13
2022-12-15T15:59:13.140Z,4.32
2022-12-15T16:01:41.050Z,4.92
2022-12-15T16:04:09.142Z,4.79
2022-12-15T16:06:37.470Z,4.96
2022-12-15T16:09:07.264Z,4.37
2022-12-15T16:11:35.351Z,5.03
2022-12-15T16:14:10.891Z,5.04
2022-12-15T16:16:38.669Z,4.62
2022-12-15T16:19:06.056Z,4.44
2022-12-15T16:21:33.499Z,4.76
2022-12-15T16:24:06.442Z,4.75
2022-12-15T16:26:33.837Z,4.82
2022-12-15T16:29:01.484Z,4.93
2022-12-15T16:31:39.146Z,4.68
2022-12-15T16:34:09.315Z,4.91
2022-12-15T16:36:36.683Z,4.53
2022-12-15T16:39:26.887Z,4.77
2022-12-15T16:41:55.182Z,5.07
2022-12-15T16:44:22.908Z,4.84
2022-12-15T16:46:50.337Z,4.82
2022-12-15T16:49:18.032Z,5.10
2022-12-15T16:51:46.980Z,5.09
2022-12-15T16:54:16.786Z,4.50
2022-12-15T16:56:44.445Z,4.74
2022-12-15T16:59:35.627Z,4.86
2022-12-15T17:02:22.217Z,4.66
2022-12-15T17:04:50.295Z,5.16
2022-12-15T17:07:20.423Z,4.86
2022-12-15T17:09:49.573Z,4.71
2022-12-15T17:12:17.961Z,4.77
2022-12-15T17:14:45.817Z,4.98
2022-12-15T17:17:17.596Z,4.62
2022-12-15T17:20:11.758Z,4.71
2022-12-15T17:22:33.279Z,4.75
2022-12-15T17:25:00.715Z,4.71
2022-12-15T17:27:28.616Z,4.10
2022-12-15T17:29:56.447Z,4.59
2022-12-15T17:32:23.863Z,4.91
2022-12-15T17:34:51.741Z,5.16
2022-12-15T17:37:19.376Z,4.59
2022-12-15T17:39:51.099Z,4.93
2022-12-15T17:42:19.804Z,4.92
2022-12-15T17:44:47.954Z,4.82
2022-12-15T17:47:15.667Z,5.37
2022-12-15T17:49:43.406Z,5.43
2022-12-15T17:52:26.194Z,5.76
2022-12-15T17:54:53.931Z,4.26
2022-12-15T17:57:21.279Z,5.12
2022-12-15T17:59:48.650Z,5.55
2022-12-15T18:02:16.378Z,4.42
2022-12-15T18:04:44.115Z,4.73
2022-12-15T18:07:21.903Z,5.28
2022-12-15T18:09:52.317Z,5.12
2022-12-15T18:12:24.019Z,4.98
2022-12-15T18:14:52.130Z,4.58
2022-12-15T18:17:19.909Z,5.08
2022-12-15T18:19:47.281Z,4.75
2022-12-15T18:22:18.851Z,5.16
2022-12-15T18:24:46.530Z,4.82
2022-12-15T18:27:27.131Z,4.92
2022-12-15T18:29:54.862Z,4.37
2022-12-15T18:32:25.342Z,4.19
2022-12-15T18:34:53.598Z,4.45
2022-12-15T18:37:23.144Z,4.31
2022-12-15T18:39:50.926Z,4.35
2022-12-15T18:42:19.302Z,3.88
2022-12-15T18:44:49.055Z,3.70
2022-12-15T18:47:23.364Z,3.81
2022-12-15T18:49:51.211Z,3.67
2022-12-15T18:52:20.782Z,3.92
2022-12-15T18:54:49.123Z,3.62
2022-12-15T18:57:33.502Z,3.20
2022-12-15T19:00:09.815Z,3.95
2022-12-15T19:02:37.804Z,3.35
2022-12-15T19:05:06.221Z,3.94
2022-12-15T19:07:34.223Z,4.32
2022-12-15T19:10:01.856Z,4.33
2022-12-15T19:12:29.181Z,4.19
2022-12-15T19:14:56.540Z,3.89
2022-12-15T19:17:42.917Z,3.47
2022-12-15T19:20:36.528Z,3.68
2022-12-15T19:23:04.835Z,4.17
2022-12-15T19:25:32.198Z,4.30
2022-12-15T19:28:00.108Z,3.51
2022-12-15T19:30:29.881Z,4.07
2022-12-15T19:32:57.354Z,4.07
2022-12-15T19:35:25.609Z,4.29
2022-12-15T19:37:55.971Z,4.32
2022-12-15T19:40:27.473Z,4.24
2022-12-15T19:42:55.673Z,4.43
2022-12-15T19:45:24.483Z,4.20
2022-12-15T19:47:52.076Z,4.40
2022-12-15T19:50:22.381Z,4.76
2022-12-15T19:52:51.667Z,3.65
2022-12-15T19:55:23.399Z,3.46
2022-12-15T19:57:51.093Z,3.79
2022-12-15T20:00:24.808Z,3.98
2022-12-15T20:02:54.590Z,3.70
2022-12-15T20:05:22.951Z,3.49
2022-12-15T20:07:53.777Z,3.43
2022-12-15T20:10:29.402Z,3.90
2022-12-15T20:13:00.672Z,3.66
2022-12-15T20:15:28.341Z,3.56
2022-12-15T20:17:58.464Z,3.86
2022-12-15T20:20:27.205Z,3.76
2022-12-15T20:22:56.242Z,4.11
2022-12-15T20:25:31.119Z,3.67
2022-12-15T20:28:00.603Z,3.41
2022-12-15T20:30:32.807Z,3.79
2022-12-15T20:33:03.777Z,3.51
2022-12-15T20:35:33.110Z,4.04
2022-12-15T20:38:02.299Z,4.08
2022-12-15T20:40:29.839Z,3.95
2022-12-15T20:42:57.287Z,4.37
2022-12-15T20:45:25.631Z,3.50
2022-12-15T20:47:53.829Z,4.20
2022-12-15T20:50:44.090Z,4.56
2022-12-15T20:53:17.258Z,4.69
2022-12-15T20:55:44.863Z,4.64
2022-12-15T20:58:12.707Z,3.79
2022-12-15T21:00:40.072Z,4.45
2022-12-15T21:03:31.277Z,4.28
2022-12-15T21:05:59.347Z,4.62
2022-12-15T21:08:28.259Z,4.50
2022-12-15T21:11:13.607Z,4.87
2022-12-15T21:13:41.350Z,4.96
2022-12-15T21:16:15.510Z,5.04
2022-12-15T21:21:32.784Z,4.78
2022-12-15T21:24:01.039Z,4.76
2022-12-15T21:26:28.849Z,4.89
2022-12-15T21:28:59.817Z,5.18
2022-12-15T21:31:27.490Z,4.37
2022-12-15T21:33:55.045Z,4.29
2022-12-15T21:36:22.490Z,4.56
2022-12-15T21:38:50.879Z,3.73
2022-12-15T21:41:20.505Z,3.83
2022-12-15T21:43:48.047Z,3.96
2022-12-15T21:46:24.625Z,3.83
2022-12-15T21:49:14.823Z,3.87
2022-12-15T21:51:43.678Z,4.64
2022-12-15T21:54:17.438Z,4.15
2022-12-15T21:56:47.400Z,4.27
2022-12-15T21:59:16.144Z,3.97
2022-12-15T22:01:43.766Z,3.66
2022-12-15T22:04:19.416Z,4.18
2022-12-15T22:06:50.215Z,3.80
2022-12-15T22:09:18.938Z,3.74
2022-12-15T22:11:47.537Z,3.38
2022-12-15T22:14:41.048Z,4.12
2022-12-15T22:17:19.715Z,4.11
2022-12-15T22:19:47.625Z,4.29
2022-12-15T22:22:16.567Z,4.34
2022-12-15T22:24:44.009Z,4.19
2022-12-15T22:27:21.497Z,3.91
2022-12-15T22:29:49.177Z,3.26
2022-12-15T22:32:16.955Z,4.11
2022-12-15T22:34:44.343Z,3.87
2022-12-15T22:37:11.988Z,3.82
2022-12-15T22:39:39.710Z,3.94
2022-12-15T22:42:07.051Z,4.30
2022-12-15T22:44:36.042Z,4.24
2022-12-15T22:47:03.475Z,4.32
2022-12-15T22:49:34.091Z,4.50
2022-12-15T22:52:01.822Z,4.76
2022-12-15T22:54:29.531Z,4.41
2022-12-15T22:57:04.509Z,4.00
2022-12-15T22:59:31.957Z,4.10
2022-12-15T23:02:01.196Z,4.48
2022-12-15T23:04:29.588Z,4.17
2022-12-15T23:06:58.063Z,3.84
2022-12-15T23:09:25.467Z,4.08
2022-12-15T23:11:52.814Z,3.83
2022-12-15T23:14:42.554Z,4.06
2022-12-15T23:17:09.896Z,3.97
2022-12-15T23:19:37.489Z,4.09
2022-12-15T23:22:04.797Z,3.89
2022-12-15T23:24:32.653Z,4.07
2022-12-15T23:27:00.255Z,4.21
2022-12-15T23:29:27.698Z,4.30
2022-12-15T23:31:55.457Z,4.22
2022-12-15T23:34:23.076Z,3.75
2022-12-15T23:36:50.740Z,3.45
2022-12-15T23:39:18.103Z,3.72
2022-12-15T23:41:45.706Z,3.85
2022-12-15T23:44:13.044Z,3.53
2022-12-15T23:46:40.734Z,3.61
2022-12-15T23:49:08.424Z,4.00
2022-12-15T23:51:35.745Z,3.56
2022-12-15T23:54:03.117Z,3.83
2022-12-15T23:56:30.771Z,3.63
2022-12-15T23:58:58.772Z,3.80
